Time;durP1;ratioP1;P1;durP2;ratioP2;P2;SDS_P1;SDS_P2;PMS_P1;PMS_P2;Temp;Humidity;BMP_temperature;BMP_pressure;BME280_temperature;BME280_humidity;BME280_pressure;Samples;Min_cycle;Max_cycle;Signal;HPM_P1;HPM_P2
2021/12/27 00:02:07;;;;;;;25.87;20.70;;;10.00;79.80;;;-142.21;100.00;112049.66;5115268;28;20548;-78
2021/12/27 00:04:34;;;;;;;25.83;21.07;;;10.10;79.90;;;-142.21;100.00;112049.66;5115449;28;20949;-78
2021/12/27 00:07:01;;;;;;;30.80;22.17;;;10.10;79.80;;;-142.21;100.00;112049.66;5115114;28;20473;-78
2021/12/27 00:09:28;;;;;;;24.50;19.70;;;10.10;79.80;;;-142.21;100.00;112049.66;5114954;28;20908;-78
2021/12/27 00:11:57;;;;;;;28.80;21.63;;;10.10;79.80;;;-142.21;100.00;112049.66;5114967;28;20473;-77
2021/12/27 00:14:24;;;;;;;26.77;20.70;;;10.10;79.90;;;-142.21;100.00;112049.66;5094699;28;20450;-77
2021/12/27 00:16:52;;;;;;;22.47;18.03;;;10.10;79.70;;;-142.21;100.00;112049.66;5107682;28;20552;-76
2021/12/27 00:19:40;;;;;;;26.90;20.80;;;10.10;79.50;;;-142.21;100.00;112049.66;5114513;28;20958;-77
2021/12/27 00:22:07;;;;;;;27.23;20.47;;;10.20;79.80;;;-142.21;100.00;112049.66;5094863;28;20434;-78
2021/12/27 00:24:35;;;;;;;41.50;25.47;;;10.20;79.30;;;-142.21;100.00;112049.66;5094629;28;20448;-75
2021/12/27 00:27:04;;;;;;;26.17;19.50;;;10.20;79.20;;;-142.21;100.00;112049.66;5103095;28;20456;-76
2021/12/27 00:29:31;;;;;;;24.97;19.00;;;10.30;79.40;;;-142.21;100.00;112049.66;5114476;28;20481;-76
2021/12/27 00:31:58;;;;;;;26.03;20.80;;;10.30;79.30;;;-142.21;100.00;112049.66;5115398;28;20820;-77
2021/12/27 00:34:26;;;;;;;22.83;19.07;;;10.30;79.30;;;-142.21;100.00;112049.66;5114650;28;20501;-78
2021/12/27 00:36:53;;;;;;;18.40;16.37;;;10.30;79.10;;;-142.21;100.00;112049.66;5114534;28;20886;-79
2021/12/27 00:39:20;;;;;;;25.67;18.97;;;10.30;79.10;;;-142.21;100.00;112049.66;5114071;28;20513;-78
2021/12/27 00:41:47;;;;;;;24.07;19.67;;;10.30;79.00;;;-142.21;100.00;112049.66;5114159;28;20449;-78
2021/12/27 00:44:18;;;;;;;19.97;17.20;;;10.30;78.80;;;-142.21;100.00;112049.66;5114388;28;21021;-79
2021/12/27 00:46:46;;;;;;;27.97;20.27;;;10.30;79.40;;;-142.21;100.00;112049.66;5114400;28;20430;-78
2021/12/27 00:49:13;;;;;;;23.70;18.30;;;10.30;79.20;;;-142.21;100.00;112049.66;5114863;28;20473;-78
2021/12/27 00:51:40;;;;;;;23.80;18.53;;;10.20;79.40;;;-142.21;100.00;112049.66;5113892;28;20449;-78
2021/12/27 00:54:10;;;;;;;22.40;18.37;;;10.10;79.90;;;-142.21;100.00;112049.66;5115105;28;20441;-79
2021/12/27 00:56:37;;;;;;;22.20;17.63;;;10.10;80.30;;;-142.21;100.00;112049.66;5114396;28;20503;-79
2021/12/27 00:59:04;;;;;;;21.90;17.77;;;10.10;80.60;;;-142.21;100.00;112049.66;5114498;28;20477;-79
2021/12/27 01:01:33;;;;;;;21.43;17.27;;;10.10;80.70;;;-142.21;100.00;112049.66;5114075;28;20480;-78
2021/12/27 01:04:00;;;;;;;24.13;17.77;;;10.10;80.80;;;-142.21;100.00;112049.66;5096783;28;21649;-78
2021/12/27 01:06:28;;;;;;;20.40;16.50;;;10.10;80.50;;;-142.21;100.00;112049.66;5114426;28;20450;-79
2021/12/27 01:08:55;;;;;;;22.13;17.37;;;10.20;80.90;;;-142.21;100.00;112049.66;5114588;28;20503;-78
2021/12/27 01:11:26;;;;;;;27.70;20.30;;;10.10;80.40;;;-142.21;100.00;112049.66;5114166;28;20441;-78
2021/12/27 01:14:04;;;;;;;23.07;18.03;;;10.20;80.50;;;-142.21;100.00;112049.66;5114075;28;20434;-79
2021/12/27 01:16:32;;;;;;;28.10;19.97;;;10.20;80.50;;;-142.21;100.00;112049.66;5114190;27;20433;-79
2021/12/27 01:19:00;;;;;;;26.37;19.63;;;10.20;80.30;;;-142.21;100.00;112049.66;5113015;28;21071;-79
2021/12/27 01:21:28;;;;;;;37.00;22.13;;;10.20;80.30;;;-142.21;100.00;112049.66;5114179;28;20528;-79
2021/12/27 01:23:56;;;;;;;27.27;19.97;;;10.20;80.40;;;-142.21;100.00;112049.66;5112442;28;20525;-79
2021/12/27 01:26:25;;;;;;;35.50;21.87;;;10.20;80.40;;;-142.21;100.00;112049.66;5113513;28;20530;-79
2021/12/27 01:28:56;;;;;;;28.07;19.67;;;10.10;80.40;;;-142.21;100.00;112049.66;5113858;28;20437;-79
2021/12/27 01:31:24;;;;;;;24.23;18.40;;;10.20;80.40;;;-142.21;100.00;112049.66;5113807;28;20525;-79
2021/12/27 01:33:52;;;;;;;24.73;19.43;;;10.20;80.70;;;-142.21;100.00;112049.66;5129177;27;20524;-79
2021/12/27 01:36:20;;;;;;;28.17;20.83;;;10.20;80.40;;;-142.21;100.00;112049.66;5115753;27;20473;-79
2021/12/27 01:38:48;;;;;;;30.07;21.20;;;10.20;80.50;;;-142.21;100.00;112049.66;5134224;27;20537;-79
2021/12/27 01:41:18;;;;;;;24.97;19.00;;;10.20;80.60;;;-142.21;100.00;112049.66;5133195;27;20566;-79
2021/12/27 01:43:46;;;;;;;30.70;20.13;;;10.20;80.60;;;-142.21;100.00;112049.66;5133799;27;20469;-79
2021/12/27 01:46:19;;;;;;;25.40;18.60;;;10.30;80.50;;;-142.21;100.00;112049.66;5093411;28;20474;-79
2021/12/27 01:48:55;;;;;;;31.20;21.00;;;10.30;80.30;;;-142.21;100.00;112049.66;5113523;28;20458;-80
2021/12/27 01:51:27;;;;;;;23.07;17.50;;;10.30;80.30;;;-142.21;100.00;112049.66;5112600;28;20958;-80
2021/12/27 01:53:56;;;;;;;41.27;24.33;;;10.20;80.80;;;-142.21;100.00;112049.66;5113392;28;20827;-80
2021/12/27 01:56:25;;;;;;;27.23;20.23;;;10.10;80.90;;;-142.21;100.00;112049.66;5112164;28;20801;-79
2021/12/27 01:58:58;;;;;;;28.13;19.20;;;10.20;80.90;;;-142.21;100.00;112049.66;5113023;28;20766;-79
2021/12/27 02:01:27;;;;;;;42.10;26.07;;;10.30;80.80;;;-142.21;100.00;112049.66;5112542;28;20495;-79
2021/12/27 02:03:56;;;;;;;29.00;21.03;;;10.20;80.60;;;-142.21;100.00;112049.66;5113074;28;20889;-79
2021/12/27 02:06:26;;;;;;;44.17;25.00;;;10.10;80.90;;;-142.21;100.00;112049.66;5112650;28;20453;-79
2021/12/27 02:08:53;;;;;;;34.37;23.77;;;10.00;81.40;;;-142.21;100.00;112049.66;5113012;28;20445;-79
2021/12/27 02:11:21;;;;;;;27.83;19.93;;;10.00;81.20;;;-142.21;100.00;112049.66;5113070;28;20474;-79
2021/12/27 02:13:49;;;;;;;30.47;21.17;;;10.00;81.60;;;-142.21;100.00;112049.66;5113624;28;20521;-79
2021/12/27 02:16:20;;;;;;;29.40;20.07;;;10.10;81.40;;;-142.21;100.00;112049.66;5112782;28;20498;-79
2021/12/27 02:18:48;;;;;;;26.27;19.70;;;10.00;81.70;;;-142.21;100.00;112049.66;5113442;28;20590;-79
2021/12/27 02:21:19;;;;;;;24.43;18.63;;;10.00;81.70;;;-142.21;100.00;112049.66;5112892;28;20837;-79
2021/12/27 02:23:48;;;;;;;33.43;22.13;;;10.10;81.60;;;-142.21;100.00;112049.66;5092859;28;20514;-79
2021/12/27 02:26:16;;;;;;;26.70;18.83;;;10.20;81.10;;;-142.21;100.00;112049.66;5092609;28;20549;-79
2021/12/27 02:28:44;;;;;;;36.67;21.90;;;10.20;80.90;;;-142.21;100.00;112049.66;5109750;28;20474;-80
2021/12/27 02:31:11;;;;;;;33.80;21.83;;;10.20;80.60;;;-142.21;100.00;112049.66;5113130;28;20960;-79
2021/12/27 02:33:41;;;;;;;34.23;21.73;;;10.20;80.50;;;-142.21;100.00;112049.66;5112550;28;20449;-79
2021/12/27 02:36:12;;;;;;;35.40;22.73;;;10.30;80.60;;;-142.21;100.00;112049.66;5113589;28;20445;-79
2021/12/27 02:38:44;;;;;;;23.80;17.83;;;10.30;80.60;;;-142.21;100.00;112049.66;5113557;28;21004;-79
2021/12/27 02:41:13;;;;;;;30.83;19.83;;;10.30;80.60;;;-142.21;100.00;112049.66;5112682;28;20782;-78
2021/12/27 02:43:42;;;;;;;27.03;18.63;;;10.30;81.20;;;-142.21;100.00;112049.66;5113748;28;20533;-79
2021/12/27 02:46:13;;;;;;;23.57;16.43;;;10.30;80.10;;;-142.21;100.00;112049.66;5112087;28;20445;-79
2021/12/27 02:48:46;;;;;;;36.00;22.27;;;10.40;80.20;;;-142.21;100.00;112049.66;5114022;28;20441;-79
2021/12/27 02:51:18;;;;;;;56.13;23.60;;;10.40;80.20;;;-142.21;100.00;112049.66;5114117;28;20437;-79
2021/12/27 02:53:48;;;;;;;51.47;22.17;;;10.30;80.20;;;-142.21;100.00;112049.66;5114312;28;20887;-79
2021/12/27 02:56:18;;;;;;;61.47;24.10;;;10.30;80.60;;;-142.21;100.00;112049.66;5113710;28;20484;-79
2021/12/27 02:58:45;;;;;;;66.10;23.20;;;10.20;80.80;;;-142.21;100.00;112049.66;5113074;28;20488;-79
2021/12/27 03:01:16;;;;;;;74.73;27.37;;;10.20;80.80;;;-142.21;100.00;112049.66;5112615;28;20829;-79
2021/12/27 03:03:43;;;;;;;52.83;20.33;;;10.10;81.20;;;-142.21;100.00;112049.66;5114030;28;20542;-79
2021/12/27 03:06:12;;;;;;;43.87;21.53;;;10.10;81.00;;;-142.21;100.00;112049.66;5113706;28;20473;-79
2021/12/27 03:08:42;;;;;;;57.43;20.90;;;10.20;81.20;;;-142.21;100.00;112049.66;5117315;28;20524;-79
2021/12/27 03:11:11;;;;;;;78.20;22.93;;;10.10;81.60;;;-142.21;100.00;112049.66;5116014;28;20475;-79
2021/12/27 03:13:46;;;;;;;85.47;24.43;;;10.10;81.70;;;-142.21;100.00;112049.66;5116144;28;20494;-79
2021/12/27 03:16:17;;;;;;;42.23;20.27;;;10.00;81.90;;;-142.21;100.00;112049.66;5115661;28;20468;-78
2021/12/27 03:18:49;;;;;;;63.10;23.40;;;10.00;81.80;;;-142.21;100.00;112049.66;5117094;28;20569;-78
2021/12/27 03:21:16;;;;;;;43.27;20.23;;;10.10;81.80;;;-142.21;100.00;112049.66;5115524;28;20557;-79
2021/12/27 03:23:46;;;;;;;64.13;21.97;;;10.10;81.80;;;-142.21;100.00;112049.66;5116116;28;20953;-79
2021/12/27 03:26:16;;;;;;;44.93;21.20;;;10.10;81.70;;;-142.21;100.00;112049.66;5115688;28;20528;-78
2021/12/27 03:28:44;;;;;;;68.03;28.20;;;10.10;81.60;;;-142.21;100.00;112049.66;5116317;28;20437;-79
2021/12/27 03:31:12;;;;;;;87.90;28.97;;;10.10;81.60;;;-142.21;100.00;112049.66;5116555;28;20449;-78
2021/12/27 03:33:40;;;;;;;38.27;20.20;;;10.10;81.60;;;-142.21;100.00;112049.66;5115210;28;20445;-79
2021/12/27 03:36:09;;;;;;;45.90;23.40;;;10.20;81.40;;;-142.21;100.00;112049.66;5116712;28;20533;-78
2021/12/27 03:38:44;;;;;;;29.20;18.13;;;10.30;81.20;;;-142.21;100.00;112049.66;5115072;28;20993;-78
2021/12/27 03:41:22;;;;;;;26.00;19.20;;;10.20;81.10;;;-142.21;100.00;112049.66;5096844;28;20426;-78
2021/12/27 03:43:50;;;;;;;44.67;23.67;;;10.30;81.10;;;-142.21;100.00;112049.66;5097111;28;20469;-75
2021/12/27 03:46:17;;;;;;;34.97;20.10;;;10.30;80.80;;;-142.21;100.00;112049.66;5129285;28;20442;-77
2021/12/27 03:48:44;;;;;;;25.40;18.03;;;10.30;80.80;;;-142.21;100.00;112049.66;5135285;28;20446;-77
2021/12/27 03:51:12;;;;;;;47.20;24.17;;;10.40;80.50;;;-142.21;100.00;112049.66;5117128;28;20524;-79
2021/12/27 03:53:39;;;;;;;46.77;23.50;;;10.40;80.00;;;-142.21;100.00;112049.66;5115310;28;20529;-78
2021/12/27 03:56:08;;;;;;;24.13;17.03;;;10.50;79.70;;;-142.21;100.00;112049.66;5115651;28;20473;-78
2021/12/27 03:58:48;;;;;;;35.67;20.33;;;10.40;79.70;;;-142.21;100.00;112049.66;5115024;28;20485;-78
2021/12/27 04:01:21;;;;;;;29.10;20.23;;;10.50;80.10;;;-142.21;100.00;112049.66;5116110;28;20495;-78
2021/12/27 04:03:51;;;;;;;23.37;17.63;;;10.50;80.20;;;-142.21;100.00;112049.66;5114949;28;20433;-78
2021/12/27 04:06:22;;;;;;;26.90;19.33;;;10.40;80.80;;;-142.21;100.00;112049.66;5116900;28;20462;-78
2021/12/27 04:08:50;;;;;;;28.00;18.67;;;10.40;80.20;;;-142.21;100.00;112049.66;5115763;28;20476;-79
2021/12/27 04:11:17;;;;;;;24.20;17.80;;;10.50;80.10;;;-142.21;100.00;112049.66;5115796;28;21017;-79
2021/12/27 04:13:46;;;;;;;64.40;28.17;;;10.50;80.00;;;-142.21;100.00;112049.66;5115227;28;20438;-79
2021/12/27 04:16:13;;;;;;;32.67;19.90;;;10.50;79.90;;;-142.21;100.00;112049.66;5116222;28;20485;-80
2021/12/27 04:18:45;;;;;;;27.47;19.73;;;10.50;79.50;;;-142.21;100.00;112049.66;5116718;28;20510;-79
2021/12/27 04:21:12;;;;;;;20.23;16.57;;;10.50;79.80;;;-142.21;100.00;112049.66;5115094;28;20926;-79
2021/12/27 04:23:39;;;;;;;42.20;22.63;;;10.40;79.50;;;-142.21;100.00;112049.66;5115176;28;20477;-79
2021/12/27 04:26:07;;;;;;;25.63;18.47;;;10.40;79.90;;;-142.21;100.00;112049.66;5115747;28;20441;-79
2021/12/27 04:28:34;;;;;;;30.43;21.80;;;10.50;80.20;;;-142.21;100.00;112049.66;5115636;28;20491;-79
2021/12/27 04:31:03;;;;;;;27.50;19.53;;;10.50;80.00;;;-142.21;100.00;112049.66;5115254;28;20979;-79
2021/12/27 04:33:31;;;;;;;24.13;18.20;;;10.50;80.00;;;-142.21;100.00;112049.66;5115242;28;20639;-79
2021/12/27 04:35:59;;;;;;;22.97;18.20;;;10.50;80.00;;;-142.21;100.00;112049.66;5114433;28;20484;-79
2021/12/27 04:38:26;;;;;;;20.43;16.57;;;10.50;80.30;;;-142.21;100.00;112049.66;5114597;28;20556;-79
2021/12/27 04:40:55;;;;;;;19.07;16.50;;;10.50;80.20;;;-142.21;100.00;112049.66;5115131;28;20763;-79
2021/12/27 04:43:24;;;;;;;18.67;16.10;;;10.40;80.40;;;-142.21;100.00;112049.66;5115447;28;20503;-80
2021/12/27 04:45:54;;;;;;;16.73;14.83;;;10.40;80.60;;;-142.21;100.00;112049.66;5115547;28;20438;-79
2021/12/27 04:48:25;;;;;;;16.40;14.70;;;10.40;80.60;;;-142.21;100.00;112049.66;5114329;28;21533;-80
2021/12/27 04:50:53;;;;;;;18.60;16.50;;;10.40;80.50;;;-142.21;100.00;112049.66;5114725;28;20458;-80
2021/12/27 04:53:20;;;;;;;15.00;13.40;;;10.40;80.20;;;-142.21;100.00;112049.66;5113768;28;20473;-79
2021/12/27 04:55:48;;;;;;;15.77;14.07;;;10.50;80.10;;;-142.21;100.00;112049.66;5114488;28;20981;-79
2021/12/27 04:58:18;;;;;;;23.17;17.57;;;10.50;80.90;;;-142.21;100.00;112049.66;5114012;28;20473;-79
2021/12/27 05:00:46;;;;;;;16.10;13.90;;;10.50;80.10;;;-142.21;100.00;112049.66;5114858;28;20429;-78
2021/12/27 05:03:13;;;;;;;15.17;13.57;;;10.40;80.10;;;-142.21;100.00;112049.66;5113806;28;20529;-77
2021/12/27 05:05:45;;;;;;;16.53;13.20;;;10.50;80.10;;;-142.21;100.00;112049.66;5114150;28;20879;-79
2021/12/27 05:08:13;;;;;;;20.63;15.17;;;10.50;79.90;;;-142.21;100.00;112049.66;5114305;28;20483;-79
2021/12/27 05:10:40;;;;;;;17.40;14.80;;;10.50;79.40;;;-142.21;100.00;112049.66;5114267;28;20511;-79
2021/12/27 05:13:08;;;;;;;20.40;15.17;;;10.50;80.20;;;-142.21;100.00;112049.66;5114331;28;20969;-79
2021/12/27 05:15:35;;;;;;;13.90;12.50;;;10.50;79.40;;;-142.21;100.00;112049.66;5113798;28;20442;-78
2021/12/27 05:18:02;;;;;;;15.63;14.03;;;10.50;79.40;;;-142.21;100.00;112049.66;5114221;28;20524;-79
2021/12/27 05:20:30;;;;;;;14.43;12.93;;;10.40;79.70;;;-142.21;100.00;112049.66;5112863;28;20547;-79
2021/12/27 05:22:58;;;;;;;19.17;15.60;;;10.40;79.80;;;-142.21;100.00;112049.66;5113553;28;20978;-79
2021/12/27 05:25:26;;;;;;;14.47;12.93;;;10.40;79.40;;;-142.21;100.00;112049.66;5113418;27;20473;-78
2021/12/27 05:27:53;;;;;;;18.03;14.50;;;10.40;79.20;;;-142.21;100.00;112049.66;5113508;28;20558;-79
2021/12/27 05:30:21;;;;;;;13.17;11.80;;;10.40;78.90;;;-142.21;100.00;112049.66;5113100;28;20873;-79
2021/12/27 05:32:49;;;;;;;12.43;11.13;;;10.40;79.00;;;-142.21;100.00;112049.66;5094699;28;20986;-79
2021/12/27 05:35:17;;;;;;;12.70;11.40;;;10.40;79.20;;;-142.21;100.00;112049.66;5093683;28;20515;-79
2021/12/27 05:37:46;;;;;;;15.43;13.40;;;10.40;79.40;;;-142.21;100.00;112049.66;5099130;28;20508;-79
2021/12/27 05:40:20;;;;;;;12.77;11.50;;;10.40;79.40;;;-142.21;100.00;112049.66;5113237;28;20521;-79
2021/12/27 05:42:49;;;;;;;13.20;11.90;;;10.40;79.40;;;-142.21;100.00;112049.66;5113459;28;20946;-79
2021/12/27 05:45:18;;;;;;;13.70;12.13;;;10.40;79.40;;;-142.21;100.00;112049.66;5112968;28;20469;-79
2021/12/27 05:47:46;;;;;;;12.87;11.53;;;10.40;79.50;;;-142.21;100.00;112049.66;5113064;28;20855;-79
2021/12/27 05:50:17;;;;;;;13.10;11.83;;;10.40;79.50;;;-142.21;100.00;112049.66;5113574;28;20510;-79
2021/12/27 05:52:45;;;;;;;16.70;13.90;;;10.50;79.50;;;-142.21;100.00;112049.66;5112798;28;20433;-79
2021/12/27 05:55:14;;;;;;;15.67;13.40;;;10.50;79.20;;;-142.21;100.00;112049.66;5095415;28;20538;-80
2021/12/27 05:57:41;;;;;;;11.63;10.47;;;10.50;79.10;;;-142.21;100.00;112049.66;5112745;28;20449;-79
2021/12/27 06:00:13;;;;;;;12.27;11.00;;;10.50;78.80;;;-142.21;100.00;112049.66;5111710;28;20568;-79
2021/12/27 06:02:40;;;;;;;11.37;10.27;;;10.50;79.00;;;-142.21;100.00;112049.66;5098068;28;20929;-79
2021/12/27 06:05:08;;;;;;;11.80;10.57;;;10.50;78.80;;;-142.21;100.00;112049.66;5112217;28;20540;-79
2021/12/27 06:07:36;;;;;;;13.10;11.60;;;10.50;78.90;;;-142.21;100.00;112049.66;5095226;28;20454;-79
2021/12/27 06:10:04;;;;;;;12.93;11.40;;;10.50;78.80;;;-142.21;100.00;112049.66;5112580;28;20528;-78
2021/12/27 06:12:35;;;;;;;16.73;13.47;;;10.50;78.90;;;-142.21;100.00;112049.66;5113340;28;20430;-79
2021/12/27 06:15:04;;;;;;;14.43;11.67;;;10.50;79.20;;;-142.21;100.00;112049.66;5112533;28;20852;-79
2021/12/27 06:17:32;;;;;;;12.63;11.33;;;10.50;79.10;;;-142.21;100.00;112049.66;5097327;28;20947;-79
2021/12/27 06:19:59;;;;;;;13.57;12.17;;;10.40;78.90;;;-142.21;100.00;112049.66;5114546;28;20505;-79
2021/12/27 06:22:28;;;;;;;12.50;11.20;;;10.40;78.70;;;-142.21;100.00;112049.66;5113952;28;20450;-79
2021/12/27 06:24:55;;;;;;;14.87;13.00;;;10.40;78.70;;;-142.21;100.00;112049.66;5113291;28;20460;-78
2021/12/27 06:27:22;;;;;;;25.40;17.93;;;10.30;78.80;;;-142.21;100.00;112049.66;5113444;28;20480;-78
2021/12/27 06:29:51;;;;;;;15.93;12.57;;;10.30;78.30;;;-142.21;100.00;112049.66;5112924;28;20477;-78
2021/12/27 06:32:18;;;;;;;11.97;10.77;;;10.30;78.00;;;-142.21;100.00;112049.66;5113074;28;20485;-78
2021/12/27 06:34:45;;;;;;;12.67;11.47;;;10.30;78.20;;;-142.21;100.00;112049.66;5114638;28;21012;-78
2021/12/27 06:37:15;;;;;;;17.70;13.37;;;10.20;78.10;;;-142.21;100.00;112049.66;5100529;28;20578;-79
2021/12/27 06:39:42;;;;;;;14.23;12.73;;;10.20;78.20;;;-142.21;100.00;112049.66;5112822;28;20493;-79
2021/12/27 06:42:09;;;;;;;13.60;12.20;;;10.20;77.70;;;-142.21;100.00;112049.66;5117026;28;20532;-79
2021/12/27 06:44:36;;;;;;;23.03;15.93;;;10.10;77.50;;;-142.21;100.00;112049.66;5120497;28;20485;-79
2021/12/27 06:47:06;;;;;;;12.17;10.87;;;10.10;77.40;;;-142.21;100.00;112049.66;5119562;28;20514;-79
2021/12/27 06:49:33;;;;;;;12.00;10.77;;;10.10;77.30;;;-142.21;100.00;112049.66;5108008;28;20442;-78
2021/12/27 06:52:00;;;;;;;11.17;10.07;;;10.00;77.20;;;-142.21;100.00;112049.66;5119764;27;20479;-78
2021/12/27 06:54:28;;;;;;;12.47;11.17;;;10.00;77.20;;;-142.21;100.00;112049.66;5119123;28;20533;-78
2021/12/27 06:56:59;;;;;;;11.83;10.53;;;10.00;77.20;;;-142.21;100.00;112049.66;5120055;27;20484;-78
2021/12/27 06:59:30;;;;;;;11.13;9.93;;;10.00;77.20;;;-142.21;100.00;112049.66;5119058;27;20469;-77
2021/12/27 07:01:57;;;;;;;11.80;10.60;;;10.00;77.40;;;-142.21;100.00;112049.66;5120210;28;20838;-79
2021/12/27 07:04:26;;;;;;;10.53;9.43;;;10.00;77.10;;;-142.21;100.00;112049.66;5120225;27;20492;-78
2021/12/27 07:06:54;;;;;;;9.93;8.93;;;10.00;77.50;;;-142.21;100.00;112049.66;5119391;28;20991;-78
2021/12/27 07:09:21;;;;;;;11.20;10.03;;;10.00;77.30;;;-142.21;100.00;112049.66;5119256;28;20481;-78
2021/12/27 07:11:49;;;;;;;9.83;8.83;;;10.00;77.40;;;-142.21;100.00;112049.66;5118352;27;20489;-78
2021/12/27 07:14:16;;;;;;;12.57;9.67;;;10.00;77.30;;;-142.21;100.00;112049.66;5120151;28;20540;-77
2021/12/27 07:16:43;;;;;;;11.40;9.13;;;10.00;77.40;;;-142.21;100.00;112049.66;5121005;27;20477;-79
2021/12/27 07:19:10;;;;;;;14.40;9.47;;;10.00;77.30;;;-142.21;100.00;112049.66;5120069;27;20456;-78
2021/12/27 07:21:39;;;;;;;22.23;11.80;;;10.00;77.50;;;-142.21;100.00;112049.66;5118727;27;20456;-78
2021/12/27 07:24:06;;;;;;;11.03;9.73;;;10.00;77.60;;;-142.21;100.00;112049.66;5118902;28;20531;-79
2021/12/27 07:26:34;;;;;;;14.10;11.53;;;10.00;77.90;;;-142.21;100.00;112049.66;5119003;27;20528;-78
2021/12/27 07:29:01;;;;;;;15.03;11.73;;;10.00;78.20;;;-142.21;100.00;112049.66;5118483;28;20481;-78
2021/12/27 07:31:28;;;;;;;11.17;10.07;;;10.00;78.30;;;-142.21;100.00;112049.66;5119392;27;20529;-78
2021/12/27 07:33:55;;;;;;;13.83;11.00;;;9.90;79.10;;;-142.21;100.00;112049.66;5118709;28;20442;-77
2021/12/27 07:36:23;;;;;;;13.53;12.13;;;10.00;78.70;;;-142.21;100.00;112049.66;5118798;28;20799;-77
2021/12/27 07:38:52;;;;;;;32.97;19.17;;;10.00;78.00;;;-142.21;100.00;112049.66;5118909;28;20560;-78
2021/12/27 07:41:20;;;;;;;15.33;12.50;;;10.10;77.40;;;-142.21;100.00;112049.66;5119687;27;20509;-77
2021/12/27 07:43:47;;;;;;;16.77;12.23;;;10.00;77.50;;;-142.21;100.00;112049.66;5123046;27;20514;-76
2021/12/27 07:46:14;;;;;;;13.07;11.30;;;10.10;77.60;;;-142.21;100.00;112049.66;5138193;28;20429;-76
2021/12/27 07:48:41;;;;;;;13.33;11.73;;;10.10;77.70;;;-142.21;100.00;112049.66;5135932;27;20498;-77
2021/12/27 07:51:09;;;;;;;12.70;11.40;;;10.10;77.50;;;-142.21;100.00;112049.66;5118441;28;20532;-77
2021/12/27 07:53:36;;;;;;;13.73;12.30;;;10.20;77.40;;;-142.21;100.00;112049.66;5115178;28;20803;-78
2021/12/27 07:56:09;;;;;;;13.53;11.63;;;10.20;77.20;;;-142.21;100.00;112049.66;5115175;28;20503;-77
2021/12/27 07:58:36;;;;;;;18.93;13.50;;;10.20;77.70;;;-142.21;100.00;112049.66;5115767;28;20430;-78
2021/12/27 08:01:05;;;;;;;12.40;10.93;;;10.20;77.20;;;-142.21;100.00;112049.66;5114924;28;20516;-78
2021/12/27 08:03:32;;;;;;;11.87;10.63;;;10.20;77.40;;;-142.21;100.00;112049.66;5115937;28;20539;-77
2021/12/27 08:05:59;;;;;;;12.40;10.97;;;10.20;77.40;;;-142.21;100.00;112049.66;5115597;28;20814;-77
2021/12/27 08:08:27;;;;;;;11.00;9.90;;;10.20;77.70;;;-142.21;100.00;112049.66;5115275;28;21353;-77
2021/12/27 08:10:54;;;;;;;10.93;9.90;;;10.20;77.70;;;-142.21;100.00;112049.66;5129735;27;20447;-78
2021/12/27 08:13:23;;;;;;;10.90;9.80;;;10.30;78.00;;;-142.21;100.00;112049.66;5132396;27;20449;-79
2021/12/27 08:15:50;;;;;;;11.50;10.30;;;10.30;78.80;;;-142.21;100.00;112049.66;5115557;28;20452;-78
2021/12/27 08:18:19;;;;;;;11.93;10.73;;;10.40;78.10;;;-142.21;100.00;112049.66;5114688;28;20481;-76
2021/12/27 08:20:47;;;;;;;15.90;13.47;;;10.50;78.00;;;-142.21;100.00;112049.66;5113898;28;20970;-75
2021/12/27 08:23:15;;;;;;;10.80;9.63;;;10.60;77.60;;;-142.21;100.00;112049.66;5115626;28;20510;-77
2021/12/27 08:25:43;;;;;;;10.43;9.47;;;10.60;77.30;;;-142.21;100.00;112049.66;5109091;28;20474;-77
2021/12/27 08:28:10;;;;;;;9.57;8.67;;;10.70;77.40;;;-142.21;100.00;112049.66;5107126;28;20484;-77
2021/12/27 08:30:38;;;;;;;9.70;8.80;;;10.80;77.10;;;-142.21;100.00;112049.66;5104324;28;20545;-75
2021/12/27 08:33:06;;;;;;;9.47;8.67;;;10.90;77.10;;;-142.21;100.00;112049.66;5114987;28;20525;-76
2021/12/27 08:35:35;;;;;;;9.30;8.50;;;11.00;76.70;;;-142.21;100.00;112049.66;5114653;28;20477;-78
2021/12/27 08:38:03;;;;;;;7.30;6.60;;;11.20;76.40;;;-142.21;100.00;112049.66;5114400;28;20477;-79
2021/12/27 08:40:30;;;;;;;9.07;8.27;;;11.40;76.00;;;-142.21;100.00;112049.66;5096308;28;20566;-76
2021/12/27 08:42:57;;;;;;;10.37;9.33;;;11.50;76.30;;;-142.21;100.00;112049.66;5107519;28;20515;-78
2021/12/27 08:45:25;;;;;;;8.63;7.93;;;11.50;75.30;;;-142.21;100.00;112049.66;5094523;28;21071;-75
2021/12/27 08:47:53;;;;;;;8.80;8.00;;;11.40;75.50;;;-142.21;100.00;112049.66;5093232;28;20442;-76
2021/12/27 08:50:20;;;;;;;8.20;7.40;;;11.30;75.80;;;-142.21;100.00;112049.66;5109963;28;20529;-78
2021/12/27 08:52:50;;;;;;;9.10;8.30;;;11.30;76.10;;;-142.21;100.00;112049.66;5083414;28;20469;-78
2021/12/27 08:55:18;;;;;;;9.43;8.53;;;11.40;76.10;;;-142.21;100.00;112049.66;5094347;28;20446;-79
2021/12/27 08:57:45;;;;;;;8.50;7.70;;;11.40;76.10;;;-142.21;100.00;112049.66;5093412;28;20969;-78
2021/12/27 09:00:16;;;;;;;8.63;7.83;;;11.50;76.20;;;-142.21;100.00;112049.66;5094145;28;20489;-78
2021/12/27 09:02:44;;;;;;;8.37;7.67;;;11.60;76.10;;;-142.21;100.00;112049.66;5073159;28;20906;-78
2021/12/27 09:05:14;;;;;;;9.10;8.30;;;11.70;76.00;;;-142.21;100.00;112049.66;5072949;28;20455;-79
2021/12/27 09:07:42;;;;;;;8.43;7.70;;;11.70;76.40;;;-142.21;100.00;112049.66;5073963;28;20493;-78
2021/12/27 09:10:10;;;;;;;9.53;8.53;;;11.70;76.40;;;-142.21;100.00;112049.66;5073463;28;20443;-78
2021/12/27 09:12:40;;;;;;;11.73;9.37;;;11.80;76.40;;;-142.21;100.00;112049.66;5073529;28;20455;-78
2021/12/27 09:15:08;;;;;;;8.03;7.23;;;11.90;76.30;;;-142.21;100.00;112049.66;5073122;28;20486;-78
2021/12/27 09:17:36;;;;;;;10.20;9.27;;;12.00;76.30;;;-142.21;100.00;112049.66;5073755;28;20869;-78
2021/12/27 09:20:06;;;;;;;8.70;7.90;;;12.10;76.20;;;-142.21;100.00;112049.66;5072696;28;20523;-78
2021/12/27 09:22:36;;;;;;;8.33;7.63;;;12.30;76.00;;;-142.21;100.00;112049.66;5072945;28;21007;-78
2021/12/27 09:25:03;;;;;;;7.50;6.83;;;12.80;75.20;;;-142.21;100.00;112049.66;5072453;28;20463;-78
2021/12/27 09:27:31;;;;;;;7.77;7.07;;;13.00;74.90;;;-142.21;100.00;112049.66;5070713;28;20489;-78
2021/12/27 09:29:58;;;;;;;6.83;6.23;;;13.20;74.50;;;-142.21;100.00;112049.66;5092830;28;20529;-79
2021/12/27 09:32:26;;;;;;;7.77;6.73;;;13.30;74.60;;;-142.21;100.00;112049.66;5093125;28;20489;-79
2021/12/27 09:34:53;;;;;;;7.93;5.97;;;13.50;74.50;;;-142.21;100.00;112049.66;5093934;28;20479;-76
2021/12/27 09:37:21;;;;;;;6.53;5.93;;;14.00;74.00;;;-142.21;100.00;112049.66;5104964;28;20972;-76
2021/12/27 09:39:53;;;;;;;5.00;4.50;;;14.40;73.10;;;-142.21;100.00;112049.66;5113784;28;20444;-76
2021/12/27 09:42:22;;;;;;;5.20;4.80;;;14.50;71.80;;;-142.21;100.00;112049.66;5111381;28;20474;-76
2021/12/27 09:44:49;;;;;;;4.70;4.30;;;14.60;71.30;;;-142.21;100.00;112049.66;5113816;28;20543;-75
2021/12/27 09:47:17;;;;;;;4.03;3.73;;;14.80;70.60;;;-142.21;100.00;112049.66;5113020;28;20450;-75
2021/12/27 09:49:46;;;;;;;3.80;3.50;;;15.10;70.00;;;-142.21;100.00;112049.66;5113948;28;20465;-75